createdAt,value
2022-08-25T00:00:20.530Z,4.13
2022-08-25T00:02:51.643Z,4.45
2022-08-25T00:05:29.108Z,8.60
2022-08-25T00:07:58.465Z,6.63
2022-08-25T00:10:26.321Z,5.65
2022-08-25T00:12:54.579Z,5.70
2022-08-25T00:15:23.950Z,7.40
2022-08-25T00:17:51.939Z,7.50
2022-08-25T00:20:20.257Z,4.00
2022-08-25T00:22:49.016Z,5.72
2022-08-25T00:25:17.094Z,4.75
2022-08-25T00:27:45.816Z,8.33
2022-08-25T00:30:16.634Z,8.60
2022-08-25T00:32:48.916Z,5.78
2022-08-25T00:35:23.858Z,5.53
2022-08-25T00:37:51.502Z,3.80
2022-08-25T00:40:19.138Z,4.68
2022-08-25T00:42:46.994Z,7.07
2022-08-25T00:45:14.692Z,5.38
2022-08-25T00:47:42.478Z,6.35
2022-08-25T00:50:11.180Z,10.50
2022-08-25T00:52:44.921Z,5.78
2022-08-25T00:55:21.575Z,6.78
2022-08-25T00:57:55.446Z,6.75
2022-08-25T01:00:28.715Z,5.47
2022-08-25T01:02:57.939Z,5.03
2022-08-25T01:05:27.153Z,4.82
2022-08-25T01:07:58.761Z,8.40
2022-08-25T01:10:31.900Z,7.47
2022-08-25T01:13:26.422Z,7.30
2022-08-25T01:15:56.296Z,4.85
2022-08-25T01:18:25.063Z,4.38
2022-08-25T01:20:54.859Z,7.50
2022-08-25T01:23:24.745Z,8.30
2022-08-25T01:26:09.881Z,4.65
2022-08-25T01:28:38.448Z,5.13
2022-08-25T01:31:23.738Z,5.88
2022-08-25T01:33:52.167Z,10.52
2022-08-25T01:36:21.325Z,8.10
2022-08-25T01:38:49.298Z,5.80
2022-08-25T01:41:25.880Z,7.03
2022-08-25T01:43:53.482Z,9.77
2022-08-25T01:46:21.259Z,8.60
2022-08-25T01:48:49.002Z,9.13
2022-08-25T01:51:19.216Z,6.90
2022-08-25T01:53:47.019Z,12.90
2022-08-25T01:56:16.628Z,10.98
2022-08-25T01:58:49.752Z,9.60
2022-08-25T02:01:21.023Z,9.93
2022-08-25T02:03:51.383Z,11.30
2022-08-25T02:06:28.884Z,10.55
2022-08-25T02:09:01.162Z,9.23
2022-08-25T02:11:29.024Z,8.60
2022-08-25T02:13:56.637Z,17.23
2022-08-25T02:16:28.605Z,8.63
2022-08-25T02:18:57.093Z,13.30
2022-08-25T02:21:25.303Z,11.60
2022-08-25T02:23:53.579Z,17.57
2022-08-25T02:26:21.187Z,13.68
2022-08-25T02:28:50.941Z,12.80
2022-08-25T02:31:21.760Z,15.00
2022-08-25T02:33:50.498Z,14.70
2022-08-25T02:36:19.204Z,17.30
2022-08-25T02:38:47.265Z,17.23
2022-08-25T02:41:20.935Z,17.75
2022-08-25T02:43:49.919Z,15.88
2022-08-25T02:48:47.869Z,8.88
2022-08-25T02:51:15.568Z,12.38
2022-08-25T02:53:46.040Z,12.40
2022-08-25T02:56:15.273Z,9.05
2022-08-25T02:58:43.297Z,9.00
2022-08-25T03:01:12.111Z,8.53
2022-08-25T03:03:40.711Z,9.15
2022-08-25T03:06:11.348Z,8.40
2022-08-25T03:08:39.961Z,7.45
2022-08-25T03:11:07.912Z,8.90
2022-08-25T03:13:35.861Z,9.48
2022-08-25T03:16:05.384Z,6.53
2022-08-25T03:18:40.900Z,7.50
2022-08-25T03:21:09.813Z,7.82
2022-08-25T03:23:37.484Z,6.75
2022-08-25T03:26:23.694Z,11.63
2022-08-25T03:28:51.450Z,8.27
2022-08-25T03:31:19.295Z,7.18
2022-08-25T03:33:46.980Z,6.55
2022-08-25T03:36:14.948Z,6.38
2022-08-25T03:38:43.148Z,9.63
2022-08-25T03:41:20.528Z,11.75
2022-08-25T03:43:48.896Z,5.40
2022-08-25T03:46:19.587Z,5.85
2022-08-25T03:48:48.841Z,8.00
2022-08-25T03:51:33.702Z,5.93
2022-08-25T03:54:02.484Z,9.50
2022-08-25T03:56:30.634Z,8.13
2022-08-25T03:58:58.502Z,4.53
2022-08-25T04:01:27.340Z,6.07
2022-08-25T04:03:55.285Z,5.68
2022-08-25T04:06:23.409Z,8.25
2022-08-25T04:08:52.956Z,8.27
2022-08-25T04:11:23.253Z,10.05
2022-08-25T04:13:52.460Z,12.77
2022-08-25T04:16:23.771Z,11.68
2022-08-25T04:18:53.840Z,10.57
2022-08-25T04:21:22.902Z,9.98
2022-08-25T04:23:52.175Z,11.68
2022-08-25T04:26:37.320Z,12.18
2022-08-25T04:29:07.854Z,10.60
2022-08-25T04:31:36.191Z,11.18
2022-08-25T04:34:14.312Z,12.15
2022-08-25T04:36:53.569Z,11.40
2022-08-25T04:39:21.785Z,11.63
2022-08-25T04:41:50.545Z,10.63
2022-08-25T04:44:18.154Z,11.25
2022-08-25T04:46:46.038Z,12.82
2022-08-25T04:49:13.629Z,7.70
2022-08-25T04:51:41.998Z,8.85
2022-08-25T04:54:13.059Z,9.15
2022-08-25T04:56:41.400Z,9.77
2022-08-25T04:59:12.217Z,15.43
2022-08-25T05:01:41.878Z,17.48
2022-08-25T05:04:12.421Z,15.32
2022-08-25T05:06:55.410Z,18.85
2022-08-25T05:09:23.360Z,20.65
2022-08-25T05:11:54.514Z,24.25
2022-08-25T05:14:26.436Z,23.98
2022-08-25T05:16:58.074Z,27.20
2022-08-25T05:19:26.868Z,23.65
2022-08-25T05:21:54.593Z,23.05
2022-08-25T05:24:26.168Z,25.95
2022-08-25T05:26:53.969Z,25.45
2022-08-25T05:29:21.998Z,23.77
2022-08-25T05:31:50.935Z,29.23
2022-08-25T05:34:19.974Z,30.27
2022-08-25T05:36:48.839Z,28.58
2022-08-25T05:41:44.419Z,32.83
2022-08-25T05:44:15.116Z,31.05
2022-08-25T05:46:45.619Z,33.00
2022-08-25T05:49:13.195Z,33.10
2022-08-25T05:51:41.025Z,31.33
2022-08-25T05:54:08.682Z,26.90
2022-08-25T05:56:36.352Z,30.38
2022-08-25T05:59:08.676Z,25.83
2022-08-25T06:01:55.588Z,30.33
2022-08-25T06:04:23.403Z,29.67
2022-08-25T06:06:53.911Z,29.00
2022-08-25T06:09:22.543Z,27.75
2022-08-25T06:11:54.521Z,33.05
2022-08-25T06:14:24.050Z,24.77
2022-08-25T06:19:20.492Z,27.77
2022-08-25T06:21:48.140Z,25.10
2022-08-25T06:24:16.005Z,25.42
2022-08-25T06:26:44.358Z,26.75
2022-08-25T06:29:14.254Z,28.92
2022-08-25T06:31:43.228Z,24.58
2022-08-25T06:34:11.696Z,26.23
2022-08-25T06:36:39.764Z,20.08
2022-08-25T06:39:08.059Z,24.93
2022-08-25T06:41:39.107Z,19.08
2022-08-25T06:44:07.099Z,23.20
2022-08-25T06:46:36.284Z,18.88
2022-08-25T06:49:06.674Z,16.02
2022-08-25T06:51:36.263Z,27.10
2022-08-25T06:54:06.617Z,17.20
2022-08-25T06:56:34.768Z,17.50
2022-08-25T06:59:04.161Z,32.80
2022-08-25T07:01:33.531Z,13.63
2022-08-25T07:04:04.995Z,16.42
2022-08-25T07:06:36.053Z,16.27
2022-08-25T07:09:08.757Z,18.83
2022-08-25T07:11:36.743Z,15.68
2022-08-25T07:14:06.628Z,13.43
2022-08-25T07:16:36.075Z,15.32
2022-08-25T07:19:05.406Z,14.32
2022-08-25T07:21:35.939Z,15.32
2022-08-25T07:24:09.779Z,20.02
2022-08-25T07:26:39.344Z,22.13
2022-08-25T07:29:14.018Z,13.50
2022-08-25T07:31:42.073Z,15.65
2022-08-25T07:34:28.780Z,13.35
2022-08-25T07:36:57.439Z,14.93
2022-08-25T07:39:26.417Z,14.45
2022-08-25T07:41:54.539Z,18.33
2022-08-25T07:44:23.445Z,18.98
2022-08-25T07:46:51.999Z,15.73
2022-08-25T07:49:23.731Z,20.67
2022-08-25T07:52:05.564Z,15.70
2022-08-25T07:54:38.151Z,13.80
2022-08-25T07:57:09.043Z,10.68
2022-08-25T07:59:41.967Z,19.23
2022-08-25T08:02:18.141Z,18.27
2022-08-25T08:04:53.893Z,13.23
2022-08-25T08:07:42.064Z,20.08
2022-08-25T08:13:02.235Z,12.07
2022-08-25T08:15:30.531Z,13.00
2022-08-25T08:17:59.875Z,15.52
2022-08-25T08:20:29.002Z,12.23
2022-08-25T08:22:57.201Z,10.27
2022-08-25T08:25:27.171Z,14.93
2022-08-25T08:27:55.931Z,13.35
2022-08-25T08:30:26.304Z,18.60
2022-08-25T08:33:11.672Z,11.65
2022-08-25T08:35:43.359Z,10.10
2022-08-25T08:38:17.258Z,9.48
2022-08-25T08:41:23.037Z,14.68
2022-08-25T08:44:00.234Z,15.00
2022-08-25T08:46:41.039Z,15.57
2022-08-25T08:49:23.142Z,17.27
2022-08-25T08:52:01.776Z,12.30
2022-08-25T08:54:36.245Z,10.63
2022-08-25T08:57:19.731Z,10.88
2022-08-25T08:59:55.393Z,11.50
2022-08-25T09:02:39.614Z,13.23
2022-08-25T09:05:23.033Z,8.68
2022-08-25T09:07:56.958Z,14.35
2022-08-25T09:10:29.018Z,14.00
2022-08-25T09:13:15.677Z,17.30
2022-08-25T09:16:20.537Z,12.45
2022-08-25T09:19:51.632Z,15.50
2022-08-25T09:22:35.454Z,11.90
2022-08-25T09:25:53.543Z,12.93
2022-08-25T09:28:28.373Z,10.45
2022-08-25T09:31:12.518Z,13.02
2022-08-25T09:33:41.642Z,9.80
2022-08-25T09:36:13.175Z,11.30
2022-08-25T09:38:41.099Z,10.75
2022-08-25T09:41:08.998Z,12.00
2022-08-25T09:43:42.366Z,10.93
2022-08-25T09:46:20.849Z,10.98
2022-08-25T09:48:57.602Z,14.98
2022-08-25T09:51:29.298Z,9.48
2022-08-25T09:54:15.763Z,8.48
2022-08-25T09:56:50.918Z,8.15
2022-08-25T09:59:34.734Z,14.20
2022-08-25T10:02:26.052Z,15.23
2022-08-25T10:04:55.933Z,11.95
2022-08-25T10:07:39.740Z,8.57
2022-08-25T10:10:22.995Z,10.63
2022-08-25T10:12:51.724Z,12.43
2022-08-25T10:15:34.862Z,11.15
2022-08-25T10:18:32.054Z,10.38
2022-08-25T10:21:09.222Z,9.50
2022-08-25T10:23:44.916Z,8.57
2022-08-25T10:26:34.816Z,11.27
2022-08-25T10:29:09.854Z,10.07
2022-08-25T10:32:11.489Z,13.10
2022-08-25T10:34:54.695Z,10.02
2022-08-25T10:37:50.249Z,18.65
2022-08-25T10:40:28.656Z,17.70
2022-08-25T10:43:07.949Z,10.75
2022-08-25T10:45:49.590Z,13.27
2022-08-25T10:48:40.968Z,20.33
2022-08-25T10:51:25.703Z,12.50
2022-08-25T10:54:02.327Z,14.15
2022-08-25T10:56:41.493Z,11.70
2022-08-25T10:59:35.558Z,14.27
2022-08-25T11:02:20.939Z,10.65
2022-08-25T11:05:07.901Z,8.88
2022-08-25T11:07:45.461Z,13.52
2022-08-25T11:10:22.646Z,15.93
2022-08-25T11:12:56.946Z,42.08
2022-08-25T11:15:41.431Z,14.23
2022-08-25T11:18:17.894Z,6.72
2022-08-25T11:21:08.673Z,8.88
2022-08-25T11:23:41.665Z,7.95
2022-08-25T11:26:12.383Z,14.93
2022-08-25T11:29:11.502Z,10.13
2022-08-25T11:31:47.342Z,10.27
2022-08-25T11:34:21.723Z,7.97
2022-08-25T11:37:01.296Z,9.88
2022-08-25T11:40:07.270Z,19.55
2022-08-25T11:42:58.379Z,13.73
2022-08-25T11:45:48.363Z,14.80
2022-08-25T11:48:29.006Z,10.73
2022-08-25T11:51:04.862Z,9.93
2022-08-25T11:53:37.667Z,11.85
2022-08-25T11:56:36.409Z,11.25
2022-08-25T11:59:08.725Z,13.55
2022-08-25T12:01:46.147Z,13.60
2022-08-25T12:04:37.812Z,15.27
2022-08-25T12:07:21.023Z,13.15
2022-08-25T12:09:54.176Z,16.83
2022-08-25T12:12:32.796Z,14.98
2022-08-25T12:15:31.424Z,20.95
2022-08-25T12:20:55.368Z,10.43
2022-08-25T12:23:44.941Z,15.63
2022-08-25T12:26:24.841Z,14.88
2022-08-25T12:29:02.325Z,13.23
2022-08-25T12:31:59.218Z,11.27
2022-08-25T12:35:00.579Z,14.65
2022-08-25T12:37:28.947Z,9.52
2022-08-25T12:40:05.894Z,10.88
2022-08-25T12:42:38.268Z,13.35
2022-08-25T12:45:21.268Z,9.73
2022-08-25T12:47:50.073Z,9.65
2022-08-25T12:50:33.629Z,7.55
2022-08-25T12:53:38.993Z,7.45
2022-08-25T12:56:27.821Z,12.85
2022-08-25T12:59:16.386Z,14.18
2022-08-25T13:02:11.070Z,12.25
2022-08-25T13:04:58.785Z,10.10
2022-08-25T13:07:57.005Z,4.22
2022-08-25T13:11:12.348Z,9.55
2022-08-25T13:13:57.679Z,3.95
2022-08-25T13:16:29.913Z,9.05
2022-08-25T13:18:59.683Z,7.68
2022-08-25T13:21:39.061Z,6.55
2022-08-25T13:24:17.608Z,12.15
2022-08-25T13:26:48.250Z,6.55
2022-08-25T13:29:21.284Z,6.68
2022-08-25T13:31:57.084Z,9.43
2022-08-25T13:34:34.694Z,11.07
2022-08-25T13:40:19.647Z,5.80
2022-08-25T13:42:55.522Z,6.05
2022-08-25T13:45:31.958Z,12.93
2022-08-25T13:47:59.879Z,6.45
2022-08-25T13:50:28.451Z,8.52
2022-08-25T13:55:51.502Z,11.07
2022-08-25T13:58:38.683Z,7.78
2022-08-25T14:01:47.153Z,9.73
2022-08-25T14:04:51.664Z,5.38
2022-08-25T14:07:23.187Z,10.82
2022-08-25T14:10:01.197Z,7.45
2022-08-25T14:15:17.609Z,6.47
2022-08-25T14:18:05.974Z,12.77
2022-08-25T14:20:36.121Z,9.30
2022-08-25T14:23:18.754Z,7.65
2022-08-25T14:25:47.757Z,6.00
2022-08-25T14:28:18.920Z,4.70
2022-08-25T14:30:54.310Z,5.63
2022-08-25T14:33:28.668Z,4.47
2022-08-25T14:35:59.889Z,7.00
2022-08-25T14:38:27.470Z,8.15
2022-08-25T14:40:55.330Z,5.63
2022-08-25T14:43:32.101Z,11.85
2022-08-25T14:46:03.196Z,4.45
2022-08-25T14:48:39.372Z,5.93
2022-08-25T14:51:09.020Z,7.30
2022-08-25T14:53:36.673Z,6.32
2022-08-25T14:56:06.891Z,6.30
2022-08-25T14:58:51.030Z,5.90
2022-08-25T15:01:28.389Z,6.13
2022-08-25T15:04:20.523Z,5.28
2022-08-25T15:06:54.770Z,6.07
2022-08-25T15:09:24.211Z,6.28
2022-08-25T15:11:55.166Z,7.05
2022-08-25T15:14:29.057Z,8.43
2022-08-25T15:17:02.993Z,8.15
2022-08-25T15:19:31.064Z,5.80
2022-08-25T15:21:59.849Z,5.35
2022-08-25T15:24:28.401Z,3.88
2022-08-25T15:27:01.270Z,8.50
2022-08-25T15:29:30.886Z,5.82
2022-08-25T15:32:00.317Z,4.28
2022-08-25T15:34:29.310Z,2.97
2022-08-25T15:36:58.478Z,4.97
2022-08-25T15:39:28.485Z,8.15
2022-08-25T15:41:57.150Z,5.40
2022-08-25T15:44:29.391Z,3.75
2022-08-25T15:46:59.424Z,7.63
2022-08-25T15:49:29.719Z,4.13
2022-08-25T15:51:59.305Z,4.05
2022-08-25T15:54:30.770Z,5.05
2022-08-25T15:56:59.933Z,3.47
2022-08-25T15:59:28.451Z,8.52
2022-08-25T16:01:56.740Z,5.38
2022-08-25T16:04:27.664Z,8.77
2022-08-25T16:06:56.147Z,5.57
2022-08-25T16:09:24.069Z,9.40
2022-08-25T16:11:56.769Z,3.78
2022-08-25T16:14:27.836Z,4.95
2022-08-25T16:16:58.438Z,4.07
2022-08-25T16:19:30.350Z,5.10
2022-08-25T16:21:59.959Z,4.13
2022-08-25T16:24:29.807Z,7.00
2022-08-25T16:27:11.665Z,5.63
2022-08-25T16:29:42.317Z,6.57
2022-08-25T16:32:13.544Z,8.57
2022-08-25T16:34:42.039Z,5.70
2022-08-25T16:37:09.888Z,8.55
2022-08-25T16:39:40.054Z,4.85
2022-08-25T16:42:09.024Z,8.07
2022-08-25T16:44:37.514Z,5.68
2022-08-25T16:47:08.778Z,7.82
2022-08-25T16:49:37.254Z,5.25
2022-08-25T16:52:28.289Z,6.00
2022-08-25T16:55:16.178Z,5.32
2022-08-25T16:57:53.571Z,6.97
2022-08-25T17:00:24.938Z,4.90
2022-08-25T17:03:00.785Z,7.97
2022-08-25T17:05:29.486Z,6.00
2022-08-25T17:08:18.346Z,7.13
2022-08-25T17:10:46.584Z,6.25
2022-08-25T17:13:14.498Z,7.25
2022-08-25T17:15:45.018Z,5.47
2022-08-25T17:18:13.797Z,5.85
2022-08-25T17:20:44.808Z,7.63
2022-08-25T17:23:13.084Z,6.18
2022-08-25T17:25:42.801Z,6.20
2022-08-25T17:28:12.975Z,5.47
2022-08-25T17:30:40.984Z,6.35
2022-08-25T17:33:08.709Z,13.02
2022-08-25T17:35:41.420Z,9.40
2022-08-25T17:38:09.713Z,6.60
2022-08-25T17:40:38.015Z,5.28
2022-08-25T17:43:09.071Z,8.63
2022-08-25T17:45:39.111Z,9.57
2022-08-25T17:48:09.198Z,5.60
2022-08-25T17:50:39.206Z,4.53
2022-08-25T17:53:09.354Z,4.88
2022-08-25T17:55:38.696Z,12.18
2022-08-25T17:58:11.927Z,8.18
2022-08-25T18:00:43.914Z,5.78
2022-08-25T18:03:12.261Z,5.53
2022-08-25T18:05:40.159Z,6.30
2022-08-25T18:08:10.569Z,8.00
2022-08-25T18:10:39.624Z,7.50
2022-08-25T18:13:07.602Z,10.77
2022-08-25T18:15:35.661Z,9.97
2022-08-25T18:18:04.689Z,6.72
2022-08-25T18:20:32.957Z,6.60
2022-08-25T18:23:19.873Z,5.15
2022-08-25T18:26:06.765Z,9.80
2022-08-25T18:28:53.512Z,6.03
2022-08-25T18:31:21.518Z,6.47
2022-08-25T18:33:50.871Z,7.63
2022-08-25T18:36:22.618Z,5.32
2022-08-25T18:39:10.775Z,6.75
2022-08-25T18:41:45.189Z,9.48
2022-08-25T18:44:13.062Z,4.28
2022-08-25T18:46:45.550Z,4.00
2022-08-25T18:49:15.795Z,4.05
2022-08-25T18:51:45.129Z,8.10
2022-08-25T18:54:22.843Z,4.95
2022-08-25T18:56:53.496Z,5.10
2022-08-25T18:59:23.678Z,4.40
2022-08-25T19:01:53.975Z,8.98
2022-08-25T19:04:28.358Z,6.88
2022-08-25T19:07:00.962Z,5.53
2022-08-25T19:09:29.693Z,5.07
2022-08-25T19:11:59.047Z,6.32
2022-08-25T19:14:27.156Z,4.97
2022-08-25T19:16:57.818Z,7.27
2022-08-25T19:19:25.971Z,6.95
2022-08-25T19:21:53.784Z,8.55
2022-08-25T19:24:21.657Z,6.10
2022-08-25T19:26:53.789Z,7.15
2022-08-25T19:29:23.174Z,5.25
2022-08-25T19:31:51.328Z,6.65
2022-08-25T19:34:28.306Z,3.93
2022-08-25T19:37:01.216Z,7.63
2022-08-25T19:39:30.266Z,5.32
2022-08-25T19:41:58.482Z,6.97
2022-08-25T19:44:28.203Z,9.43
2022-08-25T19:46:57.165Z,5.53
2022-08-25T19:49:31.487Z,6.25
2022-08-25T19:52:01.112Z,7.55
2022-08-25T19:54:33.376Z,14.45
2022-08-25T19:57:02.733Z,8.15
2022-08-25T19:59:42.607Z,6.93
2022-08-25T20:02:15.374Z,5.32
2022-08-25T20:04:49.768Z,7.32
2022-08-25T20:07:21.208Z,11.63
2022-08-25T20:09:49.399Z,8.95
2022-08-25T20:12:18.301Z,9.98
2022-08-25T20:14:47.187Z,7.32
2022-08-25T20:17:23.766Z,8.38
2022-08-25T20:19:59.303Z,7.57
2022-08-25T20:22:30.780Z,8.48
2022-08-25T20:25:07.610Z,7.55
2022-08-25T20:27:51.149Z,6.80
2022-08-25T20:30:25.252Z,9.02
2022-08-25T20:32:55.718Z,6.72
2022-08-25T20:35:26.834Z,13.88
2022-08-25T20:37:58.176Z,14.43
2022-08-25T20:40:29.962Z,10.02
2022-08-25T20:43:03.320Z,6.15
2022-08-25T20:45:31.616Z,11.90
2022-08-25T20:47:59.611Z,4.93
2022-08-25T20:50:28.597Z,9.45
2022-08-25T20:52:58.322Z,17.50
2022-08-25T20:55:27.817Z,9.73
2022-08-25T21:00:24.913Z,6.85
2022-08-25T21:02:53.487Z,9.73
2022-08-25T21:05:21.712Z,7.88
2022-08-25T21:07:49.360Z,8.07
2022-08-25T21:10:17.299Z,9.30
2022-08-25T21:12:45.318Z,13.10
2022-08-25T21:15:13.824Z,8.70
2022-08-25T21:17:50.662Z,9.13
2022-08-25T21:20:18.642Z,4.68
2022-08-25T21:22:46.197Z,6.10
2022-08-25T21:25:14.553Z,7.00
2022-08-25T21:27:43.346Z,12.52
2022-08-25T21:32:39.005Z,10.68
2022-08-25T21:35:07.940Z,7.23
2022-08-25T21:37:36.001Z,9.40
2022-08-25T21:40:06.999Z,7.25
2022-08-25T21:42:36.814Z,8.95
2022-08-25T21:45:04.997Z,10.52
2022-08-25T21:47:42.543Z,11.23
2022-08-25T21:50:11.993Z,8.02
2022-08-25T21:52:43.528Z,8.73
2022-08-25T21:55:15.833Z,16.25
2022-08-25T21:57:44.309Z,9.18
2022-08-25T22:00:14.834Z,11.35
2022-08-25T22:02:46.677Z,9.75
2022-08-25T22:05:15.454Z,6.82
2022-08-25T22:07:44.347Z,12.63
2022-08-25T22:10:16.695Z,6.90
2022-08-25T22:12:47.208Z,8.68
2022-08-25T22:15:17.928Z,8.35
2022-08-25T22:17:48.091Z,10.00
2022-08-25T22:20:17.919Z,3.85
2022-08-25T22:22:45.760Z,6.70
2022-08-25T22:25:14.595Z,7.35
2022-08-25T22:27:42.571Z,8.00
2022-08-25T22:32:39.407Z,4.32
2022-08-25T22:35:08.312Z,5.70
2022-08-25T22:37:37.436Z,7.20
2022-08-25T22:40:05.985Z,8.93
2022-08-25T22:42:33.889Z,8.98
2022-08-25T22:45:01.668Z,5.70
2022-08-25T22:47:29.269Z,9.13
2022-08-25T22:49:59.092Z,8.00
2022-08-25T22:52:33.240Z,5.18
2022-08-25T22:55:02.876Z,5.72
2022-08-25T22:59:59.353Z,7.60
2022-08-25T23:02:30.332Z,7.05
2022-08-25T23:05:00.808Z,6.75
2022-08-25T23:07:29.026Z,8.65
2022-08-25T23:09:59.867Z,7.28
2022-08-25T23:12:27.586Z,8.45
2022-08-25T23:14:55.873Z,4.65
2022-08-25T23:17:23.546Z,10.53
2022-08-25T23:19:51.398Z,6.10
2022-08-25T23:22:19.852Z,7.75
2022-08-25T23:24:52.066Z,9.95
2022-08-25T23:27:22.144Z,4.63
2022-08-25T23:29:50.265Z,8.00
2022-08-25T23:32:18.728Z,10.55
2022-08-25T23:34:47.182Z,7.32
2022-08-25T23:37:16.259Z,10.32
2022-08-25T23:39:49.946Z,8.48
2022-08-25T23:42:19.950Z,9.07
2022-08-25T23:44:48.767Z,6.82
2022-08-25T23:47:16.792Z,7.03
2022-08-25T23:49:45.125Z,8.82
2022-08-25T23:52:12.698Z,5.00
2022-08-25T23:54:40.332Z,9.35
2022-08-25T23:57:08.834Z,3.00
2022-08-25T23:59:37.841Z,9.45
